createdAt,value
2023-02-09T00:01:41.309Z,6.03
2023-02-09T00:04:15.655Z,5.40
2023-02-09T00:06:48.791Z,2.87
2023-02-09T00:09:22.328Z,4.67
2023-02-09T00:12:13.165Z,5.92
2023-02-09T00:14:46.557Z,5.28
2023-02-09T00:17:19.910Z,4.50
2023-02-09T00:19:54.908Z,5.80
2023-02-09T00:22:28.332Z,4.40
2023-02-09T00:25:01.833Z,4.97
2023-02-09T00:27:36.359Z,5.75
2023-02-09T00:30:12.113Z,4.45
2023-02-09T00:32:45.526Z,6.33
2023-02-09T00:35:20.621Z,4.67
2023-02-09T00:37:54.029Z,5.92
2023-02-09T00:40:27.583Z,5.22
2023-02-09T00:43:01.333Z,5.78
2023-02-09T00:45:35.250Z,6.15
2023-02-09T00:48:09.591Z,6.20
2023-02-09T00:50:43.111Z,6.75
2023-02-09T00:53:16.722Z,6.12
2023-02-09T00:55:50.664Z,6.85
2023-02-09T00:58:24.069Z,6.40
2023-02-09T01:00:57.199Z,5.53
2023-02-09T01:03:30.658Z,5.47
2023-02-09T01:06:04.264Z,6.45
2023-02-09T01:08:38.406Z,5.28
2023-02-09T01:11:13.603Z,5.75
2023-02-09T01:13:47.848Z,6.65
2023-02-09T01:16:21.797Z,5.30
2023-02-09T01:18:55.204Z,5.25
2023-02-09T01:21:29.364Z,6.80
2023-02-09T01:24:02.577Z,6.40
2023-02-09T01:26:36.297Z,6.80
2023-02-09T01:29:09.684Z,6.50
2023-02-09T01:31:43.650Z,5.30
2023-02-09T01:34:19.208Z,5.72
2023-02-09T01:36:54.449Z,6.20
2023-02-09T01:39:29.394Z,5.85
2023-02-09T01:42:03.731Z,6.97
2023-02-09T01:45:25.325Z,6.70
2023-02-09T01:48:01.832Z,6.53
2023-02-09T01:50:38.599Z,5.72
2023-02-09T01:53:11.920Z,6.47
2023-02-09T01:55:48.126Z,6.72
2023-02-09T01:58:23.793Z,6.10
2023-02-09T02:00:59.665Z,6.03
2023-02-09T02:03:33.392Z,6.35
2023-02-09T02:06:10.449Z,5.72
2023-02-09T02:08:46.176Z,8.58
2023-02-09T02:11:21.197Z,4.42
2023-02-09T02:13:54.419Z,5.67
2023-02-09T02:16:43.284Z,6.90
2023-02-09T02:22:59.347Z,7.40
2023-02-09T02:26:11.590Z,6.42
2023-02-09T02:28:56.164Z,6.60
2023-02-09T02:32:18.368Z,6.37
2023-02-09T02:34:54.596Z,6.67
2023-02-09T02:37:50.682Z,7.08
2023-02-09T02:40:32.298Z,6.20
2023-02-09T02:43:10.240Z,7.12
2023-02-09T02:45:47.316Z,7.17
2023-02-09T02:48:26.830Z,6.78
2023-02-09T02:51:03.446Z,7.08
2023-02-09T02:53:39.051Z,6.40
2023-02-09T02:56:16.250Z,7.03
2023-02-09T02:58:52.711Z,6.37
2023-02-09T03:01:29.359Z,6.47
2023-02-09T03:04:05.232Z,7.30
2023-02-09T03:06:40.168Z,7.62
2023-02-09T03:09:13.945Z,6.85
2023-02-09T03:11:50.103Z,6.92
2023-02-09T03:14:43.435Z,6.80
2023-02-09T03:17:22.748Z,7.05
2023-02-09T03:19:59.269Z,6.75
2023-02-09T03:22:35.976Z,7.50
2023-02-09T03:25:12.934Z,7.87
2023-02-09T03:27:50.283Z,6.60
2023-02-09T03:30:25.755Z,6.00
2023-02-09T03:32:59.377Z,6.42
2023-02-09T03:35:38.232Z,6.58
2023-02-09T03:38:11.671Z,5.97
2023-02-09T03:40:45.749Z,7.37
2023-02-09T03:43:19.436Z,7.25
2023-02-09T03:45:52.908Z,7.15
2023-02-09T03:48:26.370Z,8.50
2023-02-09T03:51:01.174Z,7.60
2023-02-09T03:53:36.579Z,7.78
2023-02-09T03:56:10.512Z,7.72
2023-02-09T03:58:44.000Z,7.55
2023-02-09T04:01:17.493Z,8.23
2023-02-09T04:03:51.351Z,8.40
2023-02-09T04:06:24.503Z,8.58
2023-02-09T04:08:58.088Z,8.65
2023-02-09T04:11:32.109Z,7.97
2023-02-09T04:14:06.457Z,7.55
2023-02-09T04:16:40.097Z,8.93
2023-02-09T04:19:13.762Z,7.97
2023-02-09T04:21:47.103Z,7.40
2023-02-09T04:24:21.964Z,7.45
2023-02-09T04:26:55.544Z,8.38
2023-02-09T04:29:29.480Z,9.10
2023-02-09T04:32:02.877Z,9.08
2023-02-09T04:34:36.278Z,7.65
2023-02-09T04:37:09.655Z,8.28
2023-02-09T04:39:43.043Z,10.90
2023-02-09T04:42:16.607Z,10.38
2023-02-09T04:44:50.097Z,8.78
2023-02-09T04:47:23.392Z,11.80
2023-02-09T04:49:56.814Z,9.95
2023-02-09T04:52:30.361Z,9.88
2023-02-09T04:55:03.696Z,9.98
2023-02-09T04:57:53.731Z,10.38
2023-02-09T05:00:27.386Z,10.45
2023-02-09T05:03:00.827Z,10.70
2023-02-09T05:05:34.124Z,9.50
2023-02-09T05:08:08.126Z,9.85
2023-02-09T05:10:41.985Z,9.70
2023-02-09T05:13:15.363Z,9.95
2023-02-09T05:15:48.784Z,11.12
2023-02-09T05:18:22.875Z,9.25
2023-02-09T05:20:56.183Z,9.73
2023-02-09T05:23:29.555Z,9.15
2023-02-09T05:26:03.357Z,8.70
2023-02-09T05:28:36.867Z,8.18
2023-02-09T05:31:10.390Z,9.08
2023-02-09T05:33:43.805Z,8.88
2023-02-09T05:36:17.181Z,8.95
2023-02-09T05:38:50.866Z,7.37
2023-02-09T05:41:42.022Z,7.65
2023-02-09T05:44:15.683Z,9.03
2023-02-09T05:46:49.138Z,7.70
2023-02-09T05:49:22.763Z,8.43
2023-02-09T05:51:56.297Z,8.10
2023-02-09T05:54:30.068Z,7.80
2023-02-09T05:57:04.262Z,6.85
2023-02-09T05:59:37.731Z,6.22
2023-02-09T06:02:12.114Z,7.22
2023-02-09T06:04:45.690Z,5.80
2023-02-09T06:07:18.801Z,6.58
2023-02-09T06:09:52.301Z,5.60
2023-02-09T06:12:25.851Z,6.53
2023-02-09T06:14:59.255Z,5.78
2023-02-09T06:17:34.442Z,5.03
2023-02-09T06:20:09.594Z,5.10
2023-02-09T06:22:42.972Z,5.35
2023-02-09T06:25:16.661Z,9.43
2023-02-09T06:27:50.150Z,11.90
2023-02-09T06:30:24.075Z,12.50
2023-02-09T06:32:57.517Z,13.90
2023-02-09T06:35:30.962Z,13.20
2023-02-09T06:38:04.513Z,14.98
2023-02-09T06:40:38.095Z,15.65
2023-02-09T06:43:11.850Z,13.10
2023-02-09T06:45:45.732Z,13.95
2023-02-09T06:48:19.309Z,14.23
2023-02-09T06:50:52.903Z,11.28
2023-02-09T06:53:26.634Z,10.40
2023-02-09T06:56:03.536Z,9.43
2023-02-09T06:58:37.598Z,8.17
2023-02-09T07:01:15.112Z,9.88
2023-02-09T07:03:48.756Z,10.93
2023-02-09T07:06:23.360Z,10.03
2023-02-09T07:08:57.256Z,10.48
2023-02-09T07:11:31.438Z,10.20
2023-02-09T07:14:04.587Z,11.73
2023-02-09T07:16:38.015Z,11.35
2023-02-09T07:19:11.484Z,10.08
2023-02-09T07:21:45.052Z,11.35
2023-02-09T07:24:18.616Z,8.65
2023-02-09T07:26:54.818Z,8.28
2023-02-09T07:29:28.383Z,8.63
2023-02-09T07:32:04.640Z,9.63
2023-02-09T07:34:38.525Z,7.62
2023-02-09T07:37:13.159Z,8.00
2023-02-09T07:39:46.865Z,8.10
2023-02-09T07:42:23.071Z,9.38
2023-02-09T07:44:59.515Z,9.57
2023-02-09T07:47:35.585Z,9.60
2023-02-09T07:50:10.401Z,8.83
2023-02-09T07:52:43.843Z,9.95
2023-02-09T07:55:17.364Z,9.35
2023-02-09T07:57:50.802Z,10.28
2023-02-09T08:00:25.658Z,10.95
2023-02-09T08:03:00.419Z,7.30
2023-02-09T08:05:37.140Z,7.50
2023-02-09T08:08:10.217Z,9.50
2023-02-09T08:10:44.490Z,9.00
2023-02-09T08:13:18.356Z,8.95
2023-02-09T08:15:54.757Z,9.45
2023-02-09T08:21:14.051Z,8.23
2023-02-09T08:23:50.467Z,10.23
2023-02-09T08:26:24.336Z,7.90
2023-02-09T08:28:58.906Z,8.25
2023-02-09T08:31:32.744Z,9.43
2023-02-09T08:34:06.804Z,10.03
2023-02-09T08:36:41.537Z,9.58
2023-02-09T08:39:15.302Z,11.20
2023-02-09T08:41:49.012Z,10.43
2023-02-09T08:44:22.986Z,10.95
2023-02-09T08:46:56.707Z,11.12
2023-02-09T08:49:30.461Z,10.75
2023-02-09T08:52:03.931Z,11.15
2023-02-09T08:54:37.764Z,12.05
2023-02-09T08:57:11.151Z,12.33
2023-02-09T08:59:44.767Z,11.05
2023-02-09T09:02:18.421Z,9.63
2023-02-09T09:04:52.010Z,10.32
2023-02-09T09:07:25.850Z,10.72
2023-02-09T09:09:59.413Z,11.12
2023-02-09T09:12:34.666Z,12.03
2023-02-09T09:15:08.869Z,12.73
2023-02-09T09:17:42.467Z,12.05
2023-02-09T09:20:16.524Z,12.85
2023-02-09T09:22:50.152Z,12.13
2023-02-09T09:25:23.341Z,11.40
2023-02-09T09:27:56.856Z,10.82
2023-02-09T09:30:30.376Z,11.55
2023-02-09T09:33:03.994Z,10.65
2023-02-09T09:35:37.616Z,9.73
2023-02-09T09:38:11.194Z,11.28
2023-02-09T09:40:47.044Z,10.72
2023-02-09T09:43:24.548Z,9.68
2023-02-09T09:45:58.678Z,10.78
2023-02-09T09:48:35.597Z,10.85
2023-02-09T09:51:12.890Z,13.50
2023-02-09T09:53:48.759Z,11.55
2023-02-09T09:56:26.132Z,11.05
2023-02-09T09:59:00.678Z,12.10
2023-02-09T10:01:35.308Z,11.28
2023-02-09T10:04:15.150Z,10.40
2023-02-09T10:06:51.125Z,10.25
2023-02-09T10:09:32.834Z,10.28
2023-02-09T10:12:18.064Z,9.10
2023-02-09T10:14:51.662Z,10.28
2023-02-09T10:17:24.724Z,9.78
2023-02-09T10:20:05.994Z,10.18
2023-02-09T10:22:39.535Z,8.90
2023-02-09T10:25:39.616Z,8.60
2023-02-09T10:28:23.177Z,9.08
2023-02-09T10:30:58.468Z,8.33
2023-02-09T10:33:34.598Z,9.73
2023-02-09T10:36:11.702Z,8.58
2023-02-09T10:38:45.512Z,9.10
2023-02-09T10:41:19.348Z,9.55
2023-02-09T10:43:55.273Z,8.10
2023-02-09T10:46:29.127Z,7.80
2023-02-09T10:49:03.530Z,7.33
2023-02-09T10:51:37.865Z,8.13
2023-02-09T10:54:14.231Z,7.17
2023-02-09T10:56:50.257Z,8.60
2023-02-09T10:59:26.346Z,7.03
2023-02-09T11:02:01.913Z,7.15
2023-02-09T11:04:40.250Z,6.35
2023-02-09T11:07:16.481Z,7.53
2023-02-09T11:09:52.683Z,6.80
2023-02-09T11:12:29.006Z,7.25
2023-02-09T11:15:02.846Z,7.20
2023-02-09T11:17:38.208Z,7.62
2023-02-09T11:20:26.938Z,7.80
2023-02-09T11:23:10.486Z,7.70
2023-02-09T11:25:48.524Z,8.60
2023-02-09T11:32:15.051Z,8.85
2023-02-09T11:37:57.714Z,7.12
2023-02-09T11:40:35.410Z,7.80
2023-02-09T11:43:18.739Z,6.80
2023-02-09T11:45:53.412Z,7.15
2023-02-09T11:48:29.752Z,7.67
2023-02-09T11:51:09.128Z,7.83
2023-02-09T11:53:46.216Z,7.53
2023-02-09T11:56:21.582Z,7.10
2023-02-09T11:58:59.300Z,8.45
2023-02-09T12:04:13.172Z,9.10
2023-02-09T12:06:49.871Z,8.75
2023-02-09T12:12:35.520Z,6.28
2023-02-09T12:15:18.377Z,6.97
2023-02-09T12:17:54.798Z,7.90
2023-02-09T12:20:32.227Z,7.50
2023-02-09T12:23:08.521Z,7.47
2023-02-09T12:26:15.393Z,7.28
2023-02-09T12:28:50.100Z,6.22
2023-02-09T12:31:27.441Z,7.05
2023-02-09T12:34:17.212Z,7.80
2023-02-09T12:37:28.636Z,5.53
2023-02-09T12:40:26.439Z,5.20
2023-02-09T12:46:20.578Z,3.67
2023-02-09T12:49:14.669Z,4.15
2023-02-09T12:55:15.137Z,3.20
2023-02-09T12:57:52.983Z,4.95
2023-02-09T13:03:43.815Z,3.90
2023-02-09T13:06:25.455Z,3.52
2023-02-09T13:09:01.768Z,4.62
2023-02-09T13:11:41.111Z,4.60
2023-02-09T13:14:16.407Z,4.47
2023-02-09T13:21:00.900Z,4.53
2023-02-09T13:23:39.862Z,4.35
2023-02-09T13:26:23.067Z,4.97
2023-02-09T13:29:19.646Z,3.65
2023-02-09T13:31:50.241Z,4.37
2023-02-09T13:37:04.140Z,4.15
2023-02-09T13:39:40.881Z,3.52
2023-02-09T13:42:23.404Z,4.37
2023-02-09T13:44:58.912Z,4.78
2023-02-09T13:47:34.106Z,5.40
2023-02-09T13:50:14.049Z,5.05
2023-02-09T13:52:47.761Z,3.70
2023-02-09T13:55:22.904Z,4.05
2023-02-09T13:57:59.586Z,3.90
2023-02-09T14:00:37.925Z,3.83
2023-02-09T14:03:16.377Z,4.47
2023-02-09T14:05:53.258Z,4.28
2023-02-09T14:08:28.478Z,5.10
2023-02-09T14:11:05.009Z,4.62
2023-02-09T14:13:41.210Z,4.65
2023-02-09T14:16:17.911Z,3.35
2023-02-09T14:18:53.608Z,4.62
2023-02-09T14:21:32.255Z,4.53
2023-02-09T14:24:21.686Z,3.90
2023-02-09T14:27:03.327Z,4.62
2023-02-09T14:29:38.277Z,3.98
2023-02-09T14:32:33.093Z,3.70
2023-02-09T14:35:04.629Z,5.47
2023-02-09T14:37:39.923Z,4.30
2023-02-09T14:40:24.273Z,4.58
2023-02-09T14:43:03.125Z,4.85
2023-02-09T14:45:43.632Z,3.87
2023-02-09T14:51:14.241Z,3.98
2023-02-09T14:53:48.631Z,4.47
2023-02-09T14:56:26.534Z,4.65
2023-02-09T14:59:00.348Z,4.67
2023-02-09T15:01:33.913Z,4.08
2023-02-09T15:04:07.294Z,1.80
2023-02-09T15:06:43.728Z,3.27
2023-02-09T15:09:21.508Z,4.00
2023-02-09T15:12:08.633Z,3.33
2023-02-09T15:14:46.580Z,3.98
2023-02-09T15:17:21.982Z,3.67
2023-02-09T15:19:55.998Z,2.87
2023-02-09T15:22:29.618Z,4.40
2023-02-09T15:25:03.195Z,4.90
2023-02-09T15:27:40.097Z,2.00
2023-02-09T15:30:18.892Z,2.40
2023-02-09T15:32:52.904Z,3.70
2023-02-09T15:35:28.372Z,4.70
2023-02-09T15:38:03.344Z,5.67
2023-02-09T15:40:57.469Z,6.50
2023-02-09T15:43:48.675Z,4.35
2023-02-09T15:46:39.694Z,2.40
2023-02-09T15:49:13.479Z,2.80
2023-02-09T15:51:47.001Z,2.92
2023-02-09T15:54:27.341Z,3.00
2023-02-09T15:57:01.556Z,3.92
2023-02-09T15:59:35.192Z,3.77
2023-02-09T16:02:14.397Z,4.17
2023-02-09T16:04:49.354Z,4.45
2023-02-09T16:07:26.992Z,4.55
2023-02-09T16:10:00.615Z,4.15
2023-02-09T16:12:36.844Z,4.53
2023-02-09T16:15:17.886Z,4.92
2023-02-09T16:17:51.869Z,4.85
2023-02-09T16:20:26.289Z,4.05
2023-02-09T16:23:11.735Z,4.20
2023-02-09T16:25:37.066Z,4.95
2023-02-09T16:28:13.718Z,2.92
2023-02-09T16:30:53.538Z,2.77
2023-02-09T16:33:27.966Z,3.30
2023-02-09T16:36:05.313Z,3.42
2023-02-09T16:38:38.915Z,2.90
2023-02-09T16:41:17.141Z,3.55
2023-02-09T16:43:51.568Z,3.37
2023-02-09T16:46:25.252Z,2.87
2023-02-09T16:48:59.166Z,3.67
2023-02-09T16:51:32.755Z,4.62
2023-02-09T16:54:07.799Z,3.92
2023-02-09T16:56:53.607Z,4.30
2023-02-09T16:59:16.526Z,3.40
2023-02-09T17:01:50.115Z,3.45
2023-02-09T17:04:23.514Z,3.50
2023-02-09T17:06:57.109Z,3.10
2023-02-09T17:09:30.412Z,4.37
2023-02-09T17:12:03.744Z,3.95
2023-02-09T17:14:37.241Z,3.85
2023-02-09T17:17:13.796Z,3.25
2023-02-09T17:19:48.405Z,3.00
2023-02-09T17:22:22.426Z,3.45
2023-02-09T17:24:56.117Z,3.90
2023-02-09T17:27:33.794Z,3.42
2023-02-09T17:30:12.180Z,3.35
2023-02-09T17:35:48.779Z,2.92
2023-02-09T17:38:02.352Z,3.77
2023-02-09T17:40:38.017Z,3.98
2023-02-09T17:43:13.088Z,5.25
2023-02-09T17:45:49.743Z,4.53
2023-02-09T17:48:24.577Z,3.53
2023-02-09T17:51:00.358Z,4.50
2023-02-09T17:53:36.213Z,4.45
2023-02-09T17:56:10.194Z,5.40
2023-02-09T17:58:44.667Z,4.00
2023-02-09T18:01:27.291Z,3.67
2023-02-09T18:04:04.078Z,3.40
2023-02-09T18:06:40.213Z,4.37
2023-02-09T18:09:16.188Z,6.37
2023-02-09T18:12:02.517Z,5.33
2023-02-09T18:14:36.963Z,5.58
2023-02-09T18:17:10.902Z,5.28
2023-02-09T18:19:44.786Z,4.28
2023-02-09T18:22:20.181Z,5.33
2023-02-09T18:24:55.435Z,4.90
2023-02-09T18:27:29.458Z,4.20
2023-02-09T18:30:03.370Z,4.42
2023-02-09T18:32:36.947Z,5.45
2023-02-09T18:35:14.123Z,5.30
2023-02-09T18:37:48.254Z,4.58
2023-02-09T18:40:22.528Z,5.53
2023-02-09T18:43:08.716Z,4.05
2023-02-09T18:46:20.620Z,3.12
2023-02-09T18:48:57.164Z,3.47
2023-02-09T18:51:31.375Z,4.65
2023-02-09T18:54:09.408Z,3.40
2023-02-09T18:56:42.754Z,5.25
2023-02-09T18:59:17.860Z,5.50
2023-02-09T19:01:51.699Z,2.30
2023-02-09T19:04:25.659Z,2.85
2023-02-09T19:06:59.969Z,4.15
2023-02-09T19:09:33.794Z,3.35
2023-02-09T19:12:09.111Z,4.35
2023-02-09T19:14:45.174Z,2.98
2023-02-09T19:17:20.234Z,3.45
2023-02-09T19:19:53.934Z,4.95
2023-02-09T19:22:28.153Z,3.42
2023-02-09T19:25:05.177Z,4.78
2023-02-09T19:27:38.657Z,3.35
2023-02-09T19:30:32.930Z,3.08
2023-02-09T19:33:09.064Z,3.17
2023-02-09T19:35:44.221Z,3.30
2023-02-09T19:38:38.136Z,2.45
2023-02-09T19:41:13.679Z,3.00
2023-02-09T19:43:50.694Z,3.00
2023-02-09T19:46:35.027Z,2.52
2023-02-09T19:49:08.443Z,1.77
2023-02-09T19:51:41.963Z,2.00
2023-02-09T19:54:35.985Z,2.27
2023-02-09T19:57:09.873Z,3.02
2023-02-09T19:59:43.385Z,2.62
2023-02-09T20:02:18.177Z,2.90
2023-02-09T20:04:52.068Z,2.92
2023-02-09T20:07:25.877Z,1.95
2023-02-09T20:09:59.456Z,2.85
2023-02-09T20:12:34.522Z,2.02
2023-02-09T20:15:09.375Z,2.30
2023-02-09T20:18:15.978Z,3.60
2023-02-09T20:21:16.372Z,2.40
2023-02-09T20:23:50.293Z,2.80
2023-02-09T20:26:26.773Z,2.85
2023-02-09T20:29:01.070Z,2.95
2023-02-09T20:31:37.127Z,3.02
2023-02-09T20:34:13.217Z,2.60
2023-02-09T20:37:23.529Z,3.00
2023-02-09T20:40:09.572Z,1.90
2023-02-09T20:43:05.797Z,1.45
2023-02-09T20:46:15.130Z,2.80
2023-02-09T20:48:52.458Z,2.52
2023-02-09T20:51:26.653Z,2.22
2023-02-09T20:54:00.146Z,2.90
2023-02-09T20:56:36.804Z,2.58
2023-02-09T20:59:10.533Z,2.50
2023-02-09T21:01:45.216Z,2.27
2023-02-09T21:04:18.840Z,2.95
2023-02-09T21:06:52.473Z,4.12
2023-02-09T21:09:28.388Z,3.25
2023-02-09T21:12:01.930Z,2.62
2023-02-09T21:14:42.196Z,3.27
2023-02-09T21:17:11.518Z,3.72
2023-02-09T21:19:45.119Z,3.62
2023-02-09T21:22:18.797Z,3.25
2023-02-09T21:24:52.610Z,3.00
2023-02-09T21:27:26.355Z,2.87
2023-02-09T21:29:59.899Z,2.65
2023-02-09T21:32:35.919Z,2.98
2023-02-09T21:35:11.225Z,4.17
2023-02-09T21:37:44.799Z,3.90
2023-02-09T21:40:20.165Z,3.25
2023-02-09T21:42:53.962Z,3.70
2023-02-09T21:45:27.406Z,4.08
2023-02-09T21:48:02.438Z,3.47
2023-02-09T21:50:35.888Z,8.48
2023-02-09T21:53:09.414Z,4.22
2023-02-09T21:55:42.941Z,4.20
2023-02-09T21:58:16.355Z,4.58
2023-02-09T22:00:54.639Z,4.85
2023-02-09T22:03:26.632Z,5.08
2023-02-09T22:06:00.776Z,5.03
2023-02-09T22:08:34.241Z,4.50
2023-02-09T22:11:08.966Z,4.58
2023-02-09T22:13:42.480Z,5.53
2023-02-09T22:16:18.715Z,4.53
2023-02-09T22:18:52.334Z,5.58
2023-02-09T22:21:26.072Z,4.28
2023-02-09T22:23:59.759Z,5.60
2023-02-09T22:26:33.150Z,4.55
2023-02-09T22:29:06.623Z,3.50
2023-02-09T22:31:40.203Z,4.00
2023-02-09T22:34:13.603Z,3.50
2023-02-09T22:36:46.871Z,3.27
2023-02-09T22:39:20.021Z,3.92
2023-02-09T22:41:54.845Z,3.70
2023-02-09T22:44:30.144Z,3.98
2023-02-09T22:47:03.738Z,4.80
2023-02-09T22:49:37.051Z,4.10
2023-02-09T22:52:10.681Z,4.65
2023-02-09T22:54:44.095Z,4.35
2023-02-09T22:57:17.394Z,3.22
2023-02-09T22:59:50.840Z,5.65
2023-02-09T23:02:24.638Z,4.33
2023-02-09T23:04:58.060Z,4.72
2023-02-09T23:07:31.686Z,3.80
2023-02-09T23:10:05.422Z,3.72
2023-02-09T23:12:40.096Z,5.67
2023-02-09T23:15:13.882Z,4.37
2023-02-09T23:17:47.383Z,4.50
2023-02-09T23:20:21.578Z,4.15
2023-02-09T23:22:56.444Z,5.70
2023-02-09T23:25:30.376Z,4.70
2023-02-09T23:28:03.811Z,5.40
2023-02-09T23:30:37.925Z,6.10
2023-02-09T23:33:11.308Z,5.00
2023-02-09T23:35:45.065Z,3.83
2023-02-09T23:38:20.075Z,4.05
2023-02-09T23:40:53.468Z,3.50
2023-02-09T23:43:27.092Z,4.42
2023-02-09T23:46:02.418Z,4.72
2023-02-09T23:48:36.558Z,4.75
2023-02-09T23:51:13.689Z,4.65
2023-02-09T23:53:47.722Z,4.50
2023-02-09T23:56:21.765Z,6.00
2023-02-09T23:58:55.870Z,5.87
